createdAt,value
2018-10-03T00:01:38.235Z,13.50
2018-10-03T00:04:06.934Z,12.50
2018-10-03T00:06:35.380Z,18.13
2018-10-03T00:09:06.985Z,21.77
2018-10-03T00:11:35.680Z,20.50
2018-10-03T00:14:04.660Z,14.23
2018-10-03T00:16:33.372Z,17.07
2018-10-03T00:19:02.247Z,20.07
2018-10-03T00:21:31.328Z,18.70
2018-10-03T00:24:00.233Z,19.73
2018-10-03T00:26:29.044Z,26.37
2018-10-03T00:28:57.748Z,29.03
2018-10-03T00:31:26.412Z,28.03
2018-10-03T00:33:55.058Z,30.50
2018-10-03T00:36:23.575Z,28.00
2018-10-03T00:38:52.229Z,34.73
2018-10-03T00:41:20.807Z,31.70
2018-10-03T00:43:49.540Z,33.47
2018-10-03T00:46:18.137Z,38.77
2018-10-03T00:48:46.991Z,38.87
2018-10-03T00:51:15.660Z,42.47
2018-10-03T00:53:44.326Z,43.03
2018-10-03T00:56:13.064Z,43.47
2018-10-03T00:58:41.748Z,44.90
2018-10-03T01:01:10.365Z,42.63
2018-10-03T01:03:39.006Z,41.53
2018-10-03T01:06:07.677Z,40.03
2018-10-03T01:08:36.354Z,44.50
2018-10-03T01:11:05.000Z,45.50
2018-10-03T01:13:33.496Z,39.47
2018-10-03T01:16:02.140Z,47.17
2018-10-03T01:18:30.836Z,50.03
2018-10-03T01:20:59.373Z,54.77
2018-10-03T01:23:27.928Z,45.07
2018-10-03T01:28:36.196Z,51.57
2018-10-03T01:31:04.896Z,52.83
2018-10-03T01:33:33.619Z,53.37
2018-10-03T01:36:02.444Z,43.20
2018-10-03T01:38:31.183Z,55.03
2018-10-03T01:40:59.754Z,55.63
2018-10-03T01:43:28.571Z,50.60
2018-10-03T01:45:57.445Z,60.77
2018-10-03T01:48:26.240Z,58.30
2018-10-03T01:50:54.916Z,64.60
2018-10-03T01:53:23.696Z,75.00
2018-10-03T01:55:52.506Z,89.23
2018-10-03T01:58:21.701Z,88.73
2018-10-03T02:00:50.532Z,73.63
2018-10-03T02:03:19.208Z,71.00
2018-10-03T02:05:48.027Z,81.87
2018-10-03T02:08:16.670Z,95.20
2018-10-03T02:10:45.279Z,103.83
2018-10-03T02:13:14.054Z,107.03
2018-10-03T02:15:42.789Z,100.93
2018-10-03T02:18:11.333Z,94.30
2018-10-03T02:20:40.022Z,99.57
2018-10-03T02:23:08.675Z,101.23
2018-10-03T02:25:37.351Z,90.80
2018-10-03T02:28:06.021Z,103.13
2018-10-03T02:30:34.862Z,100.40
2018-10-03T02:33:03.506Z,114.90
2018-10-03T02:35:32.193Z,116.57
2018-10-03T02:38:00.882Z,106.30
2018-10-03T02:40:29.564Z,115.80
2018-10-03T02:42:58.100Z,107.30
2018-10-03T02:45:26.773Z,105.70
2018-10-03T02:47:55.502Z,111.23
2018-10-03T02:50:24.163Z,122.23
2018-10-03T02:52:52.843Z,98.67
2018-10-03T02:55:21.597Z,118.50
2018-10-03T02:57:50.190Z,108.17
2018-10-03T03:00:18.946Z,116.80
2018-10-03T03:02:47.607Z,119.10
2018-10-03T03:05:16.263Z,128.17
2018-10-03T03:07:45.010Z,109.23
2018-10-03T03:10:13.628Z,116.50
2018-10-03T03:12:42.325Z,115.80
2018-10-03T03:15:11.137Z,108.53
2018-10-03T03:17:39.914Z,111.80
2018-10-03T03:20:08.588Z,106.83
2018-10-03T03:22:37.169Z,95.53
2018-10-03T03:25:05.981Z,115.23
2018-10-03T03:27:34.736Z,112.07
2018-10-03T03:30:03.409Z,120.73
2018-10-03T03:32:32.047Z,102.23
2018-10-03T03:35:00.721Z,118.83
2018-10-03T03:37:29.296Z,118.47
2018-10-03T03:39:57.924Z,124.33
2018-10-03T03:42:26.450Z,121.00
2018-10-03T03:44:55.203Z,111.90
2018-10-03T03:47:23.858Z,137.93
2018-10-03T03:49:52.393Z,126.40
2018-10-03T03:52:21.040Z,122.17
2018-10-03T03:54:49.564Z,130.70
2018-10-03T03:57:18.200Z,146.30
2018-10-03T03:59:46.849Z,117.50
2018-10-03T04:02:15.510Z,131.40
2018-10-03T04:04:44.237Z,114.00
2018-10-03T04:07:12.940Z,109.40
2018-10-03T04:09:41.544Z,133.93
2018-10-03T04:12:10.278Z,128.30
2018-10-03T04:14:39.006Z,138.30
2018-10-03T04:17:07.651Z,124.37
2018-10-03T04:19:36.376Z,110.83
2018-10-03T04:22:05.293Z,123.67
2018-10-03T04:24:33.847Z,135.13
2018-10-03T04:27:02.704Z,110.33
2018-10-03T04:29:31.359Z,103.37
2018-10-03T04:32:00.096Z,115.43
2018-10-03T04:34:28.806Z,96.03
2018-10-03T04:36:57.380Z,97.10
2018-10-03T04:39:26.336Z,95.73
2018-10-03T04:41:54.970Z,87.63
2018-10-03T04:44:23.670Z,100.00
2018-10-03T04:46:52.425Z,80.83
2018-10-03T04:49:21.060Z,91.23
2018-10-03T04:51:49.635Z,90.87
2018-10-03T04:54:18.352Z,80.27
2018-10-03T04:56:46.967Z,65.23
2018-10-03T04:59:15.533Z,72.83
2018-10-03T05:01:44.197Z,63.03
2018-10-03T05:04:12.914Z,51.03
2018-10-03T05:06:41.528Z,56.80
2018-10-03T05:09:10.182Z,64.20
2018-10-03T05:11:38.898Z,67.47
2018-10-03T05:14:07.714Z,66.13
2018-10-03T05:16:36.328Z,83.73
2018-10-03T05:19:05.312Z,51.83
2018-10-03T05:21:34.143Z,72.77
2018-10-03T05:24:05.082Z,55.97
2018-10-03T05:26:35.302Z,61.13
2018-10-03T05:29:04.910Z,70.17
2018-10-03T05:31:33.727Z,55.63
2018-10-03T05:34:02.729Z,47.97
2018-10-03T05:36:31.837Z,57.77
2018-10-03T05:39:00.605Z,50.13
2018-10-03T05:41:29.838Z,61.40
2018-10-03T05:43:58.858Z,61.70
2018-10-03T05:46:27.308Z,67.33
2018-10-03T05:48:56.320Z,54.53
2018-10-03T05:51:26.882Z,50.03
2018-10-03T05:53:55.753Z,53.90
2018-10-03T05:56:24.367Z,68.10
2018-10-03T05:58:52.986Z,52.43
2018-10-03T06:01:21.594Z,52.33
2018-10-03T06:03:50.232Z,48.07
2018-10-03T06:06:18.989Z,55.30
2018-10-03T06:08:47.994Z,52.37
2018-10-03T06:11:16.736Z,43.93
2018-10-03T06:13:45.495Z,41.93
2018-10-03T06:16:14.278Z,41.40
2018-10-03T06:18:43.204Z,35.27
2018-10-03T06:21:11.786Z,51.83
2018-10-03T06:23:40.708Z,43.67
2018-10-03T06:26:09.326Z,45.57
2018-10-03T06:28:37.962Z,30.87
2018-10-03T06:31:06.768Z,32.10
2018-10-03T06:33:35.363Z,36.73
2018-10-03T06:36:04.101Z,29.63
2018-10-03T06:38:32.775Z,35.83
2018-10-03T06:41:01.316Z,30.93
2018-10-03T06:43:30.110Z,27.60
2018-10-03T06:45:58.985Z,27.53
2018-10-03T06:48:27.522Z,33.27
2018-10-03T06:50:56.073Z,21.53
2018-10-03T06:53:24.609Z,24.40
2018-10-03T06:55:53.632Z,34.23
2018-10-03T06:58:22.143Z,22.60
2018-10-03T07:00:50.836Z,27.53
2018-10-03T07:03:19.246Z,16.27
2018-10-03T07:05:48.206Z,27.63
2018-10-03T07:08:16.680Z,22.47
2018-10-03T07:10:45.258Z,16.50
2018-10-03T07:13:13.776Z,24.30
2018-10-03T07:15:42.405Z,19.43
2018-10-03T07:18:11.229Z,20.50
2018-10-03T07:20:39.674Z,21.37
2018-10-03T07:23:08.295Z,18.70
2018-10-03T07:25:36.758Z,23.83
2018-10-03T07:28:05.700Z,18.20
2018-10-03T07:30:34.165Z,25.17
2018-10-03T07:33:02.832Z,19.13
2018-10-03T07:35:31.346Z,25.57
2018-10-03T07:37:59.980Z,14.37
2018-10-03T07:40:28.494Z,17.13
2018-10-03T07:42:56.952Z,20.27
2018-10-03T07:45:25.485Z,16.63
2018-10-03T07:47:54.132Z,16.53
2018-10-03T07:50:23.053Z,20.37
2018-10-03T07:52:51.632Z,18.93
2018-10-03T07:55:20.085Z,25.13
2018-10-03T07:57:48.557Z,20.50
2018-10-03T08:00:25.334Z,21.73
2018-10-03T08:02:54.389Z,20.33
2018-10-03T08:05:22.874Z,24.43
2018-10-03T08:07:51.378Z,21.67
2018-10-03T08:10:20.179Z,31.17
2018-10-03T08:12:49.031Z,25.13
2018-10-03T08:15:17.743Z,18.20
2018-10-03T08:17:46.786Z,19.23
2018-10-03T08:20:15.616Z,23.13
2018-10-03T08:22:44.328Z,26.03
2018-10-03T08:25:12.785Z,17.93
2018-10-03T08:27:41.599Z,17.80
2018-10-03T08:30:10.233Z,12.50
2018-10-03T08:32:38.773Z,14.03
2018-10-03T08:35:07.271Z,15.47
2018-10-03T08:37:36.686Z,11.83
2018-10-03T08:40:05.314Z,16.13
2018-10-03T08:42:34.028Z,12.13
2018-10-03T08:45:02.623Z,17.60
2018-10-03T08:47:31.281Z,11.40
2018-10-03T08:49:59.973Z,12.93
2018-10-03T08:52:28.731Z,10.60
2018-10-03T08:54:58.296Z,12.03
2018-10-03T08:57:27.302Z,11.90
2018-10-03T08:59:55.751Z,8.90
2018-10-03T09:02:24.387Z,13.37
2018-10-03T09:04:53.042Z,12.17
2018-10-03T09:07:21.492Z,9.43
2018-10-03T09:09:50.107Z,10.00
2018-10-03T09:12:18.599Z,11.63
2018-10-03T09:14:47.123Z,13.30
2018-10-03T09:17:15.877Z,10.70
2018-10-03T09:19:44.332Z,14.37
2018-10-03T09:22:12.989Z,10.03
2018-10-03T09:24:41.485Z,9.13
2018-10-03T09:27:09.917Z,12.07
2018-10-03T09:29:38.644Z,11.43
2018-10-03T09:32:07.487Z,13.67
2018-10-03T09:34:36.181Z,15.80
2018-10-03T09:37:04.880Z,15.03
2018-10-03T09:39:33.734Z,18.90
2018-10-03T09:42:02.564Z,14.90
2018-10-03T09:44:31.031Z,17.40
2018-10-03T09:46:59.673Z,17.47
2018-10-03T09:49:28.532Z,17.57
2018-10-03T09:51:57.046Z,15.80
2018-10-03T09:54:25.463Z,15.13
2018-10-03T09:56:54.036Z,13.90
2018-10-03T09:59:22.574Z,17.23
2018-10-03T10:01:51.108Z,13.13
2018-10-03T10:04:19.548Z,18.30
2018-10-03T10:06:48.141Z,17.47
2018-10-03T10:09:17.091Z,17.23
2018-10-03T10:11:45.713Z,20.30
2018-10-03T10:14:14.282Z,19.60
2018-10-03T10:16:42.700Z,16.97
2018-10-03T10:19:11.103Z,15.93
2018-10-03T10:21:39.504Z,15.80
2018-10-03T10:24:08.057Z,19.53
2018-10-03T10:26:36.566Z,20.30
2018-10-03T10:29:05.061Z,16.07
2018-10-03T10:31:33.546Z,21.27
2018-10-03T10:34:02.082Z,13.80
2018-10-03T10:36:30.615Z,25.10
2018-10-03T10:38:59.119Z,15.87
2018-10-03T10:41:27.607Z,16.10
2018-10-03T10:43:55.908Z,21.63
2018-10-03T10:46:24.516Z,16.17
2018-10-03T10:48:53.031Z,19.10
2018-10-03T10:51:21.644Z,16.33
2018-10-03T10:53:50.126Z,17.97
2018-10-03T10:56:18.712Z,16.00
2018-10-03T10:58:47.175Z,18.77
2018-10-03T11:01:15.788Z,17.93
2018-10-03T11:03:44.381Z,22.57
2018-10-03T11:06:12.891Z,17.20
2018-10-03T11:08:41.434Z,17.50
2018-10-03T11:11:09.987Z,18.03
2018-10-03T11:13:38.458Z,19.00
2018-10-03T11:16:07.177Z,21.80
2018-10-03T11:18:35.567Z,16.07
2018-10-03T11:21:04.041Z,17.87
2018-10-03T11:23:32.715Z,23.77
2018-10-03T11:26:01.178Z,21.37
2018-10-03T11:28:29.831Z,18.60
2018-10-03T11:30:58.483Z,18.07
2018-10-03T11:33:27.032Z,17.67
2018-10-03T11:35:55.527Z,18.43
2018-10-03T11:38:24.008Z,25.00
2018-10-03T11:40:52.516Z,17.43
2018-10-03T11:43:20.972Z,14.77
2018-10-03T11:45:49.702Z,18.53
2018-10-03T11:48:18.246Z,17.80
2018-10-03T11:50:46.993Z,22.40
2018-10-03T11:53:15.509Z,19.97
2018-10-03T11:55:44.275Z,17.43
2018-10-03T11:58:12.711Z,15.97
2018-10-03T12:00:41.348Z,20.40
2018-10-03T12:03:09.914Z,19.70
2018-10-03T12:05:38.309Z,15.30
2018-10-03T12:08:06.835Z,23.80
2018-10-03T12:10:35.446Z,14.13
2018-10-03T12:13:03.982Z,17.33
2018-10-03T12:15:32.504Z,18.37
2018-10-03T12:18:01.172Z,18.13
2018-10-03T12:20:29.753Z,17.17
2018-10-03T12:22:58.349Z,15.63
2018-10-03T12:25:26.938Z,22.43
2018-10-03T12:27:55.512Z,20.33
2018-10-03T12:30:24.097Z,17.50
2018-10-03T12:32:52.941Z,23.17
2018-10-03T12:35:26.719Z,14.13
2018-10-03T12:37:55.392Z,19.10
2018-10-03T12:40:23.978Z,17.90
2018-10-03T12:42:52.552Z,16.40
2018-10-03T12:45:21.151Z,20.47
2018-10-03T12:47:50.390Z,16.30
2018-10-03T12:50:19.110Z,20.10
2018-10-03T12:52:47.734Z,12.60
2018-10-03T12:55:16.308Z,16.13
2018-10-03T12:57:45.658Z,10.37
2018-10-03T13:00:14.191Z,17.77
2018-10-03T13:02:42.804Z,19.43
2018-10-03T13:05:11.342Z,15.03
2018-10-03T13:07:40.134Z,20.70
2018-10-03T13:10:08.632Z,17.60
2018-10-03T13:12:37.237Z,12.00
2018-10-03T13:15:06.439Z,16.17
2018-10-03T13:17:35.015Z,18.93
2018-10-03T13:20:03.571Z,16.20
2018-10-03T13:22:32.036Z,11.40
2018-10-03T13:25:00.603Z,16.00
2018-10-03T13:27:29.231Z,19.23
2018-10-03T13:29:57.928Z,23.23
2018-10-03T13:32:26.442Z,18.10
2018-10-03T13:34:55.183Z,16.87
2018-10-03T13:37:23.896Z,21.30
2018-10-03T13:39:52.552Z,20.90
2018-10-03T13:42:21.480Z,19.10
2018-10-03T13:44:50.102Z,20.67
2018-10-03T13:47:18.668Z,19.27
2018-10-03T13:49:47.160Z,19.10
2018-10-03T13:52:15.815Z,18.40
2018-10-03T13:54:44.235Z,14.23
2018-10-03T13:57:12.736Z,20.60
2018-10-03T13:59:41.567Z,23.83
2018-10-03T14:02:09.942Z,21.47
2018-10-03T14:04:38.601Z,13.73
2018-10-03T14:07:07.298Z,21.70
2018-10-03T14:09:35.772Z,16.50
2018-10-03T14:12:04.268Z,14.47
2018-10-03T14:14:32.720Z,15.17
2018-10-03T14:17:01.339Z,14.13
2018-10-03T14:19:29.733Z,16.90
2018-10-03T14:21:58.090Z,15.80
2018-10-03T14:24:26.573Z,17.17
2018-10-03T14:26:55.007Z,16.00
2018-10-03T14:29:23.607Z,19.37
2018-10-03T14:31:52.084Z,13.03
2018-10-03T14:34:20.691Z,22.37
2018-10-03T14:36:49.126Z,15.40
2018-10-03T14:39:17.616Z,17.43
2018-10-03T14:41:46.070Z,13.30
2018-10-03T14:44:14.575Z,22.97
2018-10-03T14:46:43.081Z,17.53
2018-10-03T14:49:11.640Z,12.23
2018-10-03T14:51:40.555Z,23.93
2018-10-03T14:54:09.303Z,12.33
2018-10-03T14:56:37.818Z,16.37
2018-10-03T14:59:06.356Z,16.90
2018-10-03T15:01:34.822Z,10.63
2018-10-03T15:04:03.425Z,16.40
2018-10-03T15:06:31.991Z,15.73
2018-10-03T15:09:00.587Z,20.90
2018-10-03T15:11:29.254Z,12.20
2018-10-03T15:13:57.837Z,16.70
2018-10-03T15:16:26.640Z,15.20
2018-10-03T15:18:55.160Z,27.63
2018-10-03T15:21:23.609Z,17.33
2018-10-03T15:23:52.172Z,14.03
2018-10-03T15:26:20.587Z,17.60
2018-10-03T15:28:49.378Z,15.53
2018-10-03T15:31:17.787Z,19.33
2018-10-03T15:33:46.323Z,18.67
2018-10-03T15:36:15.166Z,17.43
2018-10-03T15:38:43.734Z,16.83
2018-10-03T15:41:12.519Z,13.23
2018-10-03T15:43:41.008Z,11.90
2018-10-03T15:46:09.785Z,15.20
2018-10-03T15:48:38.395Z,12.10
2018-10-03T15:51:07.295Z,13.90
2018-10-03T15:53:37.755Z,10.93
2018-10-03T15:56:06.420Z,17.00
2018-10-03T15:58:35.240Z,9.33
2018-10-03T16:01:03.831Z,12.67
2018-10-03T16:03:32.395Z,20.03
2018-10-03T16:06:01.064Z,11.70
2018-10-03T16:08:30.220Z,15.60
2018-10-03T16:10:59.137Z,15.70
2018-10-03T16:13:27.691Z,16.23
2018-10-03T16:15:56.605Z,18.30
2018-10-03T16:18:25.150Z,13.00
2018-10-03T16:20:53.579Z,12.80
2018-10-03T16:23:22.152Z,15.63
2018-10-03T16:25:50.686Z,13.00
2018-10-03T16:28:19.362Z,22.27
2018-10-03T16:30:48.698Z,24.43
2018-10-03T16:33:18.061Z,19.67
2018-10-03T16:35:46.706Z,21.17
2018-10-03T16:38:16.482Z,18.77
2018-10-03T16:40:45.424Z,17.07
2018-10-03T16:43:14.068Z,18.83
2018-10-03T16:45:42.844Z,12.60
2018-10-03T16:48:11.445Z,16.67
2018-10-03T16:50:40.012Z,20.07
2018-10-03T16:53:08.500Z,13.13
2018-10-03T16:55:37.483Z,14.53
2018-10-03T16:58:06.702Z,20.90
2018-10-03T17:00:35.427Z,20.30
2018-10-03T17:03:04.166Z,19.53
2018-10-03T17:05:33.203Z,16.33
2018-10-03T17:08:01.803Z,18.40
2018-10-03T17:10:30.632Z,15.47
2018-10-03T17:12:59.805Z,16.50
2018-10-03T17:15:29.629Z,17.37
2018-10-03T17:17:59.762Z,18.57
2018-10-03T17:20:29.583Z,15.10
2018-10-03T17:22:59.311Z,20.40
2018-10-03T17:25:28.050Z,12.30
2018-10-03T17:27:56.683Z,19.53
2018-10-03T17:30:25.610Z,17.73
2018-10-03T17:32:54.274Z,23.10
2018-10-03T17:35:23.232Z,22.57
2018-10-03T17:37:52.024Z,27.03
2018-10-03T17:40:20.640Z,22.87
2018-10-03T17:42:49.431Z,25.10
2018-10-03T17:45:18.099Z,19.63
2018-10-03T17:47:46.726Z,16.43
2018-10-03T17:50:15.349Z,22.63
2018-10-03T17:52:44.256Z,25.03
2018-10-03T17:55:12.852Z,15.50
2018-10-03T17:57:41.287Z,13.30
2018-10-03T18:00:10.362Z,20.00
2018-10-03T18:02:39.005Z,17.70
2018-10-03T18:05:07.722Z,15.33
2018-10-03T18:07:36.394Z,21.13
2018-10-03T18:10:05.128Z,15.10
2018-10-03T18:12:33.801Z,25.23
2018-10-03T18:15:02.419Z,24.40
2018-10-03T18:17:31.271Z,17.80
2018-10-03T18:19:59.995Z,19.17
2018-10-03T18:22:28.529Z,14.97
2018-10-03T18:24:57.294Z,15.07
2018-10-03T18:27:25.812Z,22.13
2018-10-03T18:29:54.508Z,16.53
2018-10-03T18:32:23.122Z,15.17
2018-10-03T18:34:51.938Z,18.50
2018-10-03T18:37:20.734Z,12.80
2018-10-03T18:39:49.509Z,19.40
2018-10-03T18:42:18.261Z,12.40
2018-10-03T18:44:46.919Z,17.93
2018-10-03T18:47:15.516Z,22.93
2018-10-03T18:49:44.315Z,20.23
2018-10-03T18:52:12.917Z,18.33
2018-10-03T18:54:41.577Z,15.90
2018-10-03T18:57:10.222Z,15.73
2018-10-03T18:59:38.931Z,37.83
2018-10-03T19:02:07.848Z,20.20
2018-10-03T19:04:36.382Z,15.33
2018-10-03T19:07:04.978Z,17.13
2018-10-03T19:09:33.655Z,13.23
2018-10-03T19:12:02.438Z,16.10
2018-10-03T19:14:31.115Z,25.33
2018-10-03T19:17:00.023Z,18.10
2018-10-03T19:19:28.660Z,13.87
2018-10-03T19:21:57.460Z,10.43
2018-10-03T19:24:26.107Z,15.53
2018-10-03T19:26:54.861Z,19.67
2018-10-03T19:29:23.515Z,18.27
2018-10-03T19:31:51.962Z,14.43
2018-10-03T19:34:20.506Z,17.13
2018-10-03T19:36:49.181Z,18.83
2018-10-03T19:39:17.737Z,32.70
2018-10-03T19:41:46.341Z,17.20
2018-10-03T19:44:14.987Z,20.53
2018-10-03T19:46:43.637Z,12.37
2018-10-03T19:49:12.336Z,22.60
2018-10-03T19:51:40.994Z,11.70
2018-10-03T19:54:09.672Z,15.90
2018-10-03T19:56:38.331Z,22.40
2018-10-03T19:59:06.959Z,19.27
2018-10-03T20:01:35.418Z,24.73
2018-10-03T20:04:04.170Z,22.20
2018-10-03T20:06:32.844Z,22.23
2018-10-03T20:09:01.586Z,18.67
2018-10-03T20:11:30.236Z,31.60
2018-10-03T20:13:58.958Z,19.80
2018-10-03T20:16:27.634Z,19.07
2018-10-03T20:18:56.241Z,13.27
2018-10-03T20:21:24.920Z,18.27
2018-10-03T20:23:53.691Z,16.47
2018-10-03T20:26:22.410Z,25.70
2018-10-03T20:28:51.023Z,26.70
2018-10-03T20:31:19.496Z,17.40
2018-10-03T20:33:48.334Z,19.63
2018-10-03T20:36:17.104Z,20.60
2018-10-03T20:38:45.824Z,20.00
2018-10-03T20:41:14.459Z,16.83
2018-10-03T20:43:43.192Z,21.10
2018-10-03T20:46:11.814Z,23.73
2018-10-03T20:48:40.312Z,15.67
2018-10-03T20:51:09.012Z,23.80
2018-10-03T20:53:37.815Z,21.67
2018-10-03T20:56:06.792Z,14.93
2018-10-03T20:58:35.486Z,17.90
2018-10-03T21:01:04.163Z,15.90
2018-10-03T21:03:32.956Z,17.23
2018-10-03T21:06:01.898Z,22.53
2018-10-03T21:08:30.697Z,18.03
2018-10-03T21:10:59.344Z,27.77
2018-10-03T21:13:28.064Z,18.43
2018-10-03T21:15:56.825Z,18.60
2018-10-03T21:18:25.649Z,22.07
2018-10-03T21:20:54.295Z,18.83
2018-10-03T21:23:22.980Z,25.70
2018-10-03T21:25:51.716Z,26.33
2018-10-03T21:28:20.351Z,17.10
2018-10-03T21:30:49.066Z,16.17
2018-10-03T21:33:17.637Z,17.40
2018-10-03T21:35:46.555Z,23.50
2018-10-03T21:38:15.350Z,20.30
2018-10-03T21:40:44.265Z,20.30
2018-10-03T21:43:12.969Z,12.57
2018-10-03T21:45:41.594Z,20.13
2018-10-03T21:48:10.312Z,22.03
2018-10-03T21:50:39.067Z,23.50
2018-10-03T21:53:07.682Z,18.40
2018-10-03T21:55:36.358Z,16.20
2018-10-03T21:58:05.134Z,29.00
2018-10-03T22:00:39.166Z,16.60
2018-10-03T22:03:07.963Z,14.90
2018-10-03T22:05:36.777Z,28.20
2018-10-03T22:08:05.517Z,15.43
2018-10-03T22:10:34.218Z,19.13
2018-10-03T22:13:02.984Z,22.47
2018-10-03T22:15:31.738Z,19.00
2018-10-03T22:18:00.454Z,21.20
2018-10-03T22:20:29.133Z,18.37
2018-10-03T22:22:57.924Z,19.20
2018-10-03T22:25:26.700Z,18.97
2018-10-03T22:27:55.453Z,23.07
2018-10-03T22:30:24.273Z,17.23
2018-10-03T22:32:53.185Z,23.53
2018-10-03T22:35:21.666Z,22.50
2018-10-03T22:37:50.296Z,22.17
2018-10-03T22:40:18.837Z,14.83
2018-10-03T22:42:47.338Z,17.50
2018-10-03T22:45:16.062Z,15.13
2018-10-03T22:47:44.800Z,15.27
2018-10-03T22:50:13.592Z,20.30
2018-10-03T22:52:42.307Z,18.67
2018-10-03T22:55:10.942Z,19.50
2018-10-03T22:57:39.643Z,29.43
2018-10-03T23:00:09.154Z,22.30
2018-10-03T23:02:37.950Z,22.17
2018-10-03T23:05:06.643Z,30.03
2018-10-03T23:07:35.258Z,20.10
2018-10-03T23:10:03.966Z,20.67
2018-10-03T23:12:32.548Z,14.20
2018-10-03T23:15:01.324Z,18.53
2018-10-03T23:17:29.960Z,16.30
2018-10-03T23:19:58.853Z,20.83
2018-10-03T23:22:27.609Z,15.73
2018-10-03T23:24:56.304Z,18.50
2018-10-03T23:27:24.923Z,19.53
2018-10-03T23:29:53.555Z,19.97
2018-10-03T23:32:22.249Z,20.00
2018-10-03T23:34:50.968Z,18.20
2018-10-03T23:37:19.599Z,11.17
2018-10-03T23:39:48.293Z,15.43
2018-10-03T23:42:17.070Z,13.90
2018-10-03T23:44:45.765Z,21.13
2018-10-03T23:47:14.441Z,16.27
2018-10-03T23:49:43.177Z,15.07
2018-10-03T23:52:11.911Z,18.53
2018-10-03T23:54:40.645Z,14.63
2018-10-03T23:57:09.235Z,21.03
2018-10-03T23:59:37.820Z,24.23
